메인 페이지
METAR-TAF:

METAR-TAF

공항 :

대구국제공항

대구광역, 대한민국

위도: 35-54N, 경도: 128-39E, 고도: 35m

현재 날씨관측

예보는 18분 전, 15:00시(UTC)에 발표되었습니다.
4kt
온도 26°C
습도 94%
기압 1006 hPa
시정 10km 이상
고도 500ft 상공 구름 조금
고도 1000ft 상공 구름 보통
고도 2300ft 상공 구름 많음

METAR: RKTN 151500Z 28004KT 9999 FEW005 SCT010 BKN023 26/25 Q1006 NOSIG

시각: 00:18 (15:18 UTC)

예보

예보는 1 시간 48분 전, 13:30시(UTC)에 발표되었습니다.
예보 대상 시간: 15일 13시부터 16일 18시까지 (UTC)
10kt
시정 10km 이상
고도 2000ft 상공 구름 보통
고도 3000ft 상공 구름 많음
약한비
전환 중
15일 14시부터 15일 15시까지 (UTC)

TAF: RKTN 151330Z 1513/1618 27010KT 9999 -RA SCT020 BKN030 TN24/1521Z TX33/1606Z BECMG 1514/1515 NSW

4,000개 이상의 공항 관측 자료 및 예보 (METAR 및 TAF 보고).

지도상에서 검색 가능한 기상관측소가 노란 점과 빨간 점으로 표시되어 있습니다.

기상관측소 명을 보려면 표시 위로 마우스를 이동하세요.

날씨 관측과 예보를 보려면 클릭하세요.

지도 변경 : 확대하려면 엑스 표시가 있는 녹색 버튼, 축소하려면 빼기 표시가 있는 녹색 버튼, 다음 페이지의 지도를 보려면 녹색 화살표를 클릭하세요.


METAR-TAF: